Philip S W Goldson International, Belize

6:52 AM CST on May 24, 2017 (GMT -0600)
Philip S W Goldson International | | Change Station

Elev 16 ft 17.53 °N, 88.30 °W | Updated 52 minutes ago

Mostly Cloudy
Mostly Cloudy
82 °F
Feels Like 94 °F
N
5
Wind Variable Wind from SE

Today
High -- | Low -- °F
--% Chance of Precip.
Yesterday
High -- | Low -- °F
Precip. -- in
Pressure 29.74 in
Visibility 6.2 miles
Clouds Mostly Cloudy 1800 ft
Heat Index 94 °F
Dew Point 81 °F
Humidity 94%
Rainfall 0.00 in
Snow Depth Not available.
5:18 AM 6:21 PM
Waning Crescent, 3% visible
METAR MZBZ 241200Z 13004KT 9999 BKN018 28/27 A2974 Q1007 NOSIG
Pressure 29.74 in
Visibility 6.2 miles
Clouds Mostly Cloudy 1800 ft
Heat Index 94 °F
Dew Point 81 °F
Humidity 94%
Rainfall 0.00 in
Snow Depth Not available.
5:18 AM 6:21 PM
Waning Crescent, 3% visible
METAR MZBZ 241200Z 13004KT 9999 BKN018 28/27 A2974 Q1007 NOSIG

Get Severe Weather Alerts

Thanks for signing up!

Be on the lookout for a verification email in your inbox.

You'll start receiving the daily forecast at 6 AM.

×

10-Day Weather Forecast

No radar image for this location.
×

Almanac

Astronomy

May. 24, 2017 Rise Set
Actual Time
Civil Twilight
Nautical Twilight
Astronomical Twilight
Moon
Length of Visible Light
Length of Day
Tomorrow will be .
, % of the Moon is Illuminated

Today's Extremes

Country Highs Country Lows

Community

WunderPhotos

Category 6

Welcome to Category 6. This is the collective home for Weather Underground's featured writeups by Dr. Jeff Masters (right), Bob Henson (left), Chris Burt, and other regular contributors.

Nearby

Air Quality

  Air Quality AQ Index Pollutant
Not available.

Snow Depth

Station Depth Elevation

Earthquake Activity

City Distance Mag. Time & Date
Minimum magnitude displayed is 2.5.

Coastal Water Temperatures

Place Temperature

Stations

Nearby Weather Stations

Station Location Temp. Windchill Dew Point Humidity Wind Precip. Elev Updated Type